sensor_id;sensor_type;location;lat;lon;timestamp;temperature;humidity
78448;SHT31;67742;51.972;5.682;2023-08-06T00:00:52;19.3;67.5
78448;SHT31;67742;51.972;5.682;2023-08-06T00:03:20;19.3;67.5
78448;SHT31;67742;51.972;5.682;2023-08-06T00:05:48;19.3;67.5
78448;SHT31;67742;51.972;5.682;2023-08-06T00:08:17;19.3;67.7
78448;SHT31;67742;51.972;5.682;2023-08-06T00:10:47;19.3;67.8
78448;SHT31;67742;51.972;5.682;2023-08-06T00:13:15;19.3;67.9
78448;SHT31;67742;51.972;5.682;2023-08-06T00:15:44;19.3;67.9
78448;SHT31;67742;51.972;5.682;2023-08-06T00:18:13;19.3;67.8
78448;SHT31;67742;51.972;5.682;2023-08-06T00:20:41;19.3;68.0
78448;SHT31;67742;51.972;5.682;2023-08-06T00:23:09;19.3;67.8
78448;SHT31;67742;51.972;5.682;2023-08-06T00:25:38;19.3;68.0
78448;SHT31;67742;51.972;5.682;2023-08-06T00:28:09;19.3;67.9
78448;SHT31;67742;51.972;5.682;2023-08-06T00:30:37;19.3;68.0
78448;SHT31;67742;51.972;5.682;2023-08-06T00:33:05;19.2;67.7
78448;SHT31;67742;51.972;5.682;2023-08-06T00:35:34;19.2;67.8
78448;SHT31;67742;51.972;5.682;2023-08-06T00:38:02;19.2;67.7
78448;SHT31;67742;51.972;5.682;2023-08-06T00:40:30;19.2;68.0
78448;SHT31;67742;51.972;5.682;2023-08-06T00:42:59;19.2;68.4
78448;SHT31;67742;51.972;5.682;2023-08-06T00:45:28;19.2;68.2
78448;SHT31;67742;51.972;5.682;2023-08-06T00:47:57;19.2;68.5
78448;SHT31;67742;51.972;5.682;2023-08-06T00:50:26;19.2;68.5
78448;SHT31;67742;51.972;5.682;2023-08-06T00:52:56;19.2;68.8
78448;SHT31;67742;51.972;5.682;2023-08-06T00:55:25;19.2;69.0
78448;SHT31;67742;51.972;5.682;2023-08-06T00:57:54;19.2;69.0
78448;SHT31;67742;51.972;5.682;2023-08-06T01:00:25;19.2;69.2
78448;SHT31;67742;51.972;5.682;2023-08-06T01:02:55;19.2;69.4
78448;SHT31;67742;51.972;5.682;2023-08-06T01:05:24;19.2;69.5
78448;SHT31;67742;51.972;5.682;2023-08-06T01:08:05;19.2;69.4
78448;SHT31;67742;51.972;5.682;2023-08-06T01:10:49;19.2;69.2
78448;SHT31;67742;51.972;5.682;2023-08-06T01:13:26;19.2;69.4
78448;SHT31;67742;51.972;5.682;2023-08-06T01:15:59;19.2;69.1
78448;SHT31;67742;51.972;5.682;2023-08-06T01:18:28;19.2;69.3
78448;SHT31;67742;51.972;5.682;2023-08-06T01:20:57;19.2;69.4
78448;SHT31;67742;51.972;5.682;2023-08-06T01:23:27;19.2;69.6
78448;SHT31;67742;51.972;5.682;2023-08-06T01:26:05;19.2;69.5
78448;SHT31;67742;51.972;5.682;2023-08-06T01:28:44;19.2;69.6
78448;SHT31;67742;51.972;5.682;2023-08-06T01:31:24;19.1;69.5
78448;SHT31;67742;51.972;5.682;2023-08-06T01:33:54;19.1;69.5
78448;SHT31;67742;51.972;5.682;2023-08-06T01:36:24;19.1;69.7
78448;SHT31;67742;51.972;5.682;2023-08-06T01:38:54;19.1;69.4
78448;SHT31;67742;51.972;5.682;2023-08-06T01:41:23;19.1;69.7
78448;SHT31;67742;51.972;5.682;2023-08-06T01:43:52;19.1;69.6
78448;SHT31;67742;51.972;5.682;2023-08-06T01:46:20;19.1;69.8
78448;SHT31;67742;51.972;5.682;2023-08-06T01:48:49;19.1;69.5
78448;SHT31;67742;51.972;5.682;2023-08-06T01:51:17;19.1;69.8
78448;SHT31;67742;51.972;5.682;2023-08-06T01:53:45;19.1;70.1
78448;SHT31;67742;51.972;5.682;2023-08-06T01:56:14;19.1;70.1
78448;SHT31;67742;51.972;5.682;2023-08-06T01:58:43;19.1;69.9
78448;SHT31;67742;51.972;5.682;2023-08-06T02:01:11;19.1;70.1
78448;SHT31;67742;51.972;5.682;2023-08-06T02:03:40;19.1;70.1
78448;SHT31;67742;51.972;5.682;2023-08-06T02:06:08;19.1;70.3
78448;SHT31;67742;51.972;5.682;2023-08-06T02:08:38;19.1;70.3
78448;SHT31;67742;51.972;5.682;2023-08-06T02:11:07;19.1;70.0
78448;SHT31;67742;51.972;5.682;2023-08-06T02:13:36;19.1;70.2
78448;SHT31;67742;51.972;5.682;2023-08-06T02:16:07;19.1;70.4
78448;SHT31;67742;51.972;5.682;2023-08-06T02:18:35;19.1;70.4
78448;SHT31;67742;51.972;5.682;2023-08-06T02:21:04;19.1;70.3
78448;SHT31;67742;51.972;5.682;2023-08-06T02:23:33;19.1;70.5
78448;SHT31;67742;51.972;5.682;2023-08-06T02:26:03;19.1;70.3
78448;SHT31;67742;51.972;5.682;2023-08-06T02:28:32;19.1;70.4
78448;SHT31;67742;51.972;5.682;2023-08-06T02:31:01;19.1;70.3
78448;SHT31;67742;51.972;5.682;2023-08-06T02:33:31;19.1;70.2
78448;SHT31;67742;51.972;5.682;2023-08-06T02:36:03;19.1;70.3
78448;SHT31;67742;51.972;5.682;2023-08-06T02:38:32;19.1;70.1
78448;SHT31;67742;51.972;5.682;2023-08-06T02:41:02;19.1;70.3
78448;SHT31;67742;51.972;5.682;2023-08-06T02:43:31;19.1;70.3
78448;SHT31;67742;51.972;5.682;2023-08-06T02:46:00;19.1;70.3
78448;SHT31;67742;51.972;5.682;2023-08-06T02:48:29;19.1;70.2
78448;SHT31;67742;51.972;5.682;2023-08-06T02:51:00;19.1;70.0
78448;SHT31;67742;51.972;5.682;2023-08-06T02:53:29;19.1;69.8
78448;SHT31;67742;51.972;5.682;2023-08-06T02:55:58;19.1;70.2
78448;SHT31;67742;51.972;5.682;2023-08-06T02:58:27;19.1;70.3
78448;SHT31;67742;51.972;5.682;2023-08-06T03:01:04;19.1;70.0
78448;SHT31;67742;51.972;5.682;2023-08-06T03:03:34;19.1;70.0
78448;SHT31;67742;51.972;5.682;2023-08-06T03:06:04;19.1;70.2
78448;SHT31;67742;51.972;5.682;2023-08-06T03:08:35;19.1;70.2
78448;SHT31;67742;51.972;5.682;2023-08-06T03:11:04;19.1;70.2
78448;SHT31;67742;51.972;5.682;2023-08-06T03:13:32;19.1;70.1
78448;SHT31;67742;51.972;5.682;2023-08-06T03:16:01;19.1;70.1
78448;SHT31;67742;51.972;5.682;2023-08-06T03:18:29;19.0;70.3
78448;SHT31;67742;51.972;5.682;2023-08-06T03:20:57;19.0;70.3
78448;SHT31;67742;51.972;5.682;2023-08-06T03:23:26;19.0;70.0
78448;SHT31;67742;51.972;5.682;2023-08-06T03:25:54;19.0;70.2
78448;SHT31;67742;51.972;5.682;2023-08-06T03:28:23;19.0;70.2
78448;SHT31;67742;51.972;5.682;2023-08-06T03:31:00;19.0;70.3
78448;SHT31;67742;51.972;5.682;2023-08-06T03:33:30;19.0;70.3
78448;SHT31;67742;51.972;5.682;2023-08-06T03:35:58;19.0;70.3
78448;SHT31;67742;51.972;5.682;2023-08-06T03:38:27;19.0;70.1
78448;SHT31;67742;51.972;5.682;2023-08-06T03:40:55;19.0;70.4
78448;SHT31;67742;51.972;5.682;2023-08-06T03:43:24;19.0;70.1
78448;SHT31;67742;51.972;5.682;2023-08-06T03:45:52;19.0;70.2
78448;SHT31;67742;51.972;5.682;2023-08-06T03:48:21;19.0;70.3
78448;SHT31;67742;51.972;5.682;2023-08-06T03:50:51;19.0;70.2
78448;SHT31;67742;51.972;5.682;2023-08-06T03:53:20;19.0;70.3
78448;SHT31;67742;51.972;5.682;2023-08-06T03:55:48;19.0;70.2
78448;SHT31;67742;51.972;5.682;2023-08-06T03:58:17;19.0;70.3
78448;SHT31;67742;51.972;5.682;2023-08-06T04:00:45;19.0;70.3
78448;SHT31;67742;51.972;5.682;2023-08-06T04:03:14;19.0;70.3
78448;SHT31;67742;51.972;5.682;2023-08-06T04:05:43;19.0;70.4
78448;SHT31;67742;51.972;5.682;2023-08-06T04:08:13;19.0;70.3
78448;SHT31;67742;51.972;5.682;2023-08-06T04:10:42;19.0;70.3
78448;SHT31;67742;51.972;5.682;2023-08-06T04:13:10;19.0;70.3
78448;SHT31;67742;51.972;5.682;2023-08-06T04:15:39;19.0;70.3
78448;SHT31;67742;51.972;5.682;2023-08-06T04:18:07;19.0;70.3
78448;SHT31;67742;51.972;5.682;2023-08-06T04:20:45;19.0;70.3
78448;SHT31;67742;51.972;5.682;2023-08-06T04:23:16;19.0;70.4
78448;SHT31;67742;51.972;5.682;2023-08-06T04:25:44;19.0;70.3
78448;SHT31;67742;51.972;5.682;2023-08-06T04:28:12;19.0;70.2
78448;SHT31;67742;51.972;5.682;2023-08-06T04:30:41;19.0;70.3
78448;SHT31;67742;51.972;5.682;2023-08-06T04:33:09;19.0;70.2
78448;SHT31;67742;51.972;5.682;2023-08-06T04:35:37;19.0;70.4
78448;SHT31;67742;51.972;5.682;2023-08-06T04:38:06;19.0;70.4
78448;SHT31;67742;51.972;5.682;2023-08-06T04:40:35;19.0;70.3
78448;SHT31;67742;51.972;5.682;2023-08-06T04:43:04;19.0;70.4
78448;SHT31;67742;51.972;5.682;2023-08-06T04:45:34;19.0;70.3
78448;SHT31;67742;51.972;5.682;2023-08-06T04:48:03;19.0;70.7
78448;SHT31;67742;51.972;5.682;2023-08-06T04:50:32;19.0;70.6
78448;SHT31;67742;51.972;5.682;2023-08-06T04:53:00;19.0;70.8
78448;SHT31;67742;51.972;5.682;2023-08-06T04:55:28;19.0;70.8
78448;SHT31;67742;51.972;5.682;2023-08-06T04:57:57;19.0;71.1
78448;SHT31;67742;51.972;5.682;2023-08-06T05:00:25;19.0;71.2
78448;SHT31;67742;51.972;5.682;2023-08-06T05:02:53;19.0;71.1
78448;SHT31;67742;51.972;5.682;2023-08-06T05:05:22;19.0;71.3
78448;SHT31;67742;51.972;5.682;2023-08-06T05:07:50;19.0;71.1
78448;SHT31;67742;51.972;5.682;2023-08-06T05:10:19;19.0;71.2
78448;SHT31;67742;51.972;5.682;2023-08-06T05:12:47;19.0;71.1
78448;SHT31;67742;51.972;5.682;2023-08-06T05:15:16;19.0;71.1
78448;SHT31;67742;51.972;5.682;2023-08-06T05:17:45;19.0;71.3
78448;SHT31;67742;51.972;5.682;2023-08-06T05:20:13;19.0;71.2
78448;SHT31;67742;51.972;5.682;2023-08-06T05:22:42;19.1;71.4
78448;SHT31;67742;51.972;5.682;2023-08-06T05:25:13;19.1;71.3
78448;SHT31;67742;51.972;5.682;2023-08-06T05:27:42;19.1;71.5
78448;SHT31;67742;51.972;5.682;2023-08-06T05:30:11;19.1;71.2
78448;SHT31;67742;51.972;5.682;2023-08-06T05:32:41;19.1;71.2
78448;SHT31;67742;51.972;5.682;2023-08-06T05:35:12;19.1;71.3
78448;SHT31;67742;51.972;5.682;2023-08-06T05:37:42;19.2;71.2
78448;SHT31;67742;51.972;5.682;2023-08-06T05:40:13;19.2;71.0
78448;SHT31;67742;51.972;5.682;2023-08-06T05:42:42;19.2;70.7
78448;SHT31;67742;51.972;5.682;2023-08-06T05:45:11;19.2;70.6
78448;SHT31;67742;51.972;5.682;2023-08-06T05:47:48;19.2;70.7
78448;SHT31;67742;51.972;5.682;2023-08-06T05:50:17;19.2;70.6
78448;SHT31;67742;51.972;5.682;2023-08-06T05:52:45;19.2;70.8
78448;SHT31;67742;51.972;5.682;2023-08-06T05:55:14;19.2;70.7
78448;SHT31;67742;51.972;5.682;2023-08-06T05:57:42;19.3;71.0
78448;SHT31;67742;51.972;5.682;2023-08-06T06:00:11;19.3;70.8
78448;SHT31;67742;51.972;5.682;2023-08-06T06:02:40;19.3;70.7
78448;SHT31;67742;51.972;5.682;2023-08-06T06:05:09;19.3;70.9
78448;SHT31;67742;51.972;5.682;2023-08-06T06:07:38;19.3;71.0
78448;SHT31;67742;51.972;5.682;2023-08-06T06:10:08;19.3;71.3
78448;SHT31;67742;51.972;5.682;2023-08-06T06:12:38;19.3;71.3
78448;SHT31;67742;51.972;5.682;2023-08-06T06:15:08;19.3;71.1
78448;SHT31;67742;51.972;5.682;2023-08-06T06:17:37;19.4;71.2
78448;SHT31;67742;51.972;5.682;2023-08-06T06:20:06;19.4;71.2
78448;SHT31;67742;51.972;5.682;2023-08-06T06:22:35;19.4;71.0
78448;SHT31;67742;51.972;5.682;2023-08-06T06:25:04;19.4;70.9
78448;SHT31;67742;51.972;5.682;2023-08-06T06:27:33;19.4;70.7
78448;SHT31;67742;51.972;5.682;2023-08-06T06:30:01;19.4;70.5
78448;SHT31;67742;51.972;5.682;2023-08-06T06:32:32;19.4;70.6
78448;SHT31;67742;51.972;5.682;2023-08-06T06:35:01;19.4;70.4
78448;SHT31;67742;51.972;5.682;2023-08-06T06:37:29;19.5;70.2
78448;SHT31;67742;51.972;5.682;2023-08-06T06:39:58;19.5;70.1
78448;SHT31;67742;51.972;5.682;2023-08-06T06:42:27;19.5;70.0
78448;SHT31;67742;51.972;5.682;2023-08-06T06:44:55;19.5;69.8
78448;SHT31;67742;51.972;5.682;2023-08-06T06:47:24;19.5;69.9
78448;SHT31;67742;51.972;5.682;2023-08-06T06:49:53;19.4;70.0
78448;SHT31;67742;51.972;5.682;2023-08-06T06:52:21;19.4;69.9
78448;SHT31;67742;51.972;5.682;2023-08-06T06:54:50;19.4;70.0
78448;SHT31;67742;51.972;5.682;2023-08-06T06:57:19;19.4;70.2
78448;SHT31;67742;51.972;5.682;2023-08-06T07:00:26;19.4;70.3
78448;SHT31;67742;51.972;5.682;2023-08-06T07:02:55;19.4;70.3
78448;SHT31;67742;51.972;5.682;2023-08-06T07:05:23;19.3;70.6
78448;SHT31;67742;51.972;5.682;2023-08-06T07:07:54;19.3;71.0
78448;SHT31;67742;51.972;5.682;2023-08-06T07:10:22;19.3;70.6
78448;SHT31;67742;51.972;5.682;2023-08-06T07:12:51;19.3;70.8
78448;SHT31;67742;51.972;5.682;2023-08-06T07:15:20;19.2;71.1
78448;SHT31;67742;51.972;5.682;2023-08-06T07:17:49;19.2;71.3
78448;SHT31;67742;51.972;5.682;2023-08-06T07:20:17;19.2;71.4
78448;SHT31;67742;51.972;5.682;2023-08-06T07:22:48;19.1;71.5
78448;SHT31;67742;51.972;5.682;2023-08-06T07:25:18;19.1;71.7
78448;SHT31;67742;51.972;5.682;2023-08-06T07:27:47;19.1;71.7
78448;SHT31;67742;51.972;5.682;2023-08-06T07:30:15;19.0;72.1
78448;SHT31;67742;51.972;5.682;2023-08-06T07:32:44;19.0;72.3
78448;SHT31;67742;51.972;5.682;2023-08-06T07:35:13;19.0;72.6
78448;SHT31;67742;51.972;5.682;2023-08-06T07:37:41;19.0;73.4
78448;SHT31;67742;51.972;5.682;2023-08-06T07:40:11;19.0;72.6
78448;SHT31;67742;51.972;5.682;2023-08-06T07:42:41;19.0;72.7
78448;SHT31;67742;51.972;5.682;2023-08-06T07:45:16;19.0;72.0
78448;SHT31;67742;51.972;5.682;2023-08-06T07:47:47;19.1;72.4
78448;SHT31;67742;51.972;5.682;2023-08-06T07:50:15;19.1;72.2
78448;SHT31;67742;51.972;5.682;2023-08-06T07:52:44;19.1;72.1
78448;SHT31;67742;51.972;5.682;2023-08-06T07:55:12;19.1;72.5
78448;SHT31;67742;51.972;5.682;2023-08-06T07:57:44;19.1;71.9
78448;SHT31;67742;51.972;5.682;2023-08-06T08:00:13;19.1;71.9
78448;SHT31;67742;51.972;5.682;2023-08-06T08:02:42;19.1;71.7
78448;SHT31;67742;51.972;5.682;2023-08-06T08:05:12;19.1;71.5
78448;SHT31;67742;51.972;5.682;2023-08-06T08:07:41;19.2;71.2
78448;SHT31;67742;51.972;5.682;2023-08-06T08:10:11;19.2;71.6
78448;SHT31;67742;51.972;5.682;2023-08-06T08:12:39;19.2;71.6
78448;SHT31;67742;51.972;5.682;2023-08-06T08:15:11;19.2;71.7
78448;SHT31;67742;51.972;5.682;2023-08-06T08:17:40;19.2;71.6
78448;SHT31;67742;51.972;5.682;2023-08-06T08:20:09;19.2;71.6
78448;SHT31;67742;51.972;5.682;2023-08-06T08:22:38;19.2;72.0
78448;SHT31;67742;51.972;5.682;2023-08-06T08:25:07;19.1;72.3
78448;SHT31;67742;51.972;5.682;2023-08-06T08:27:36;19.1;72.5
78448;SHT31;67742;51.972;5.682;2023-08-06T08:30:05;19.1;72.0
78448;SHT31;67742;51.972;5.682;2023-08-06T08:32:34;19.1;72.5
78448;SHT31;67742;51.972;5.682;2023-08-06T08:35:03;19.1;72.0
78448;SHT31;67742;51.972;5.682;2023-08-06T08:37:32;19.1;72.1
78448;SHT31;67742;51.972;5.682;2023-08-06T08:40:00;19.1;72.3
78448;SHT31;67742;51.972;5.682;2023-08-06T08:42:30;19.1;72.3
78448;SHT31;67742;51.972;5.682;2023-08-06T08:44:58;19.1;72.4
78448;SHT31;67742;51.972;5.682;2023-08-06T08:47:28;19.1;72.3
78448;SHT31;67742;51.972;5.682;2023-08-06T08:49:57;19.1;72.5
78448;SHT31;67742;51.972;5.682;2023-08-06T08:52:28;19.1;72.7
78448;SHT31;67742;51.972;5.682;2023-08-06T08:54:59;19.1;72.6
78448;SHT31;67742;51.972;5.682;2023-08-06T08:57:30;19.1;72.8
78448;SHT31;67742;51.972;5.682;2023-08-06T08:59:59;19.1;71.5
78448;SHT31;67742;51.972;5.682;2023-08-06T09:02:29;19.0;70.4
78448;SHT31;67742;51.972;5.682;2023-08-06T09:05:01;18.9;70.8
78448;SHT31;67742;51.972;5.682;2023-08-06T09:07:34;18.8;71.1
78448;SHT31;67742;51.972;5.682;2023-08-06T09:10:04;18.7;71.6
78448;SHT31;67742;51.972;5.682;2023-08-06T09:12:37;18.5;71.8
78448;SHT31;67742;51.972;5.682;2023-08-06T09:15:07;18.5;72.3
78448;SHT31;67742;51.972;5.682;2023-08-06T09:17:36;18.4;72.7
78448;SHT31;67742;51.972;5.682;2023-08-06T09:20:14;18.3;72.9
78448;SHT31;67742;51.972;5.682;2023-08-06T09:22:43;18.2;73.1
78448;SHT31;67742;51.972;5.682;2023-08-06T09:25:22;18.0;73.5
78448;SHT31;67742;51.972;5.682;2023-08-06T09:27:52;18.0;73.9
78448;SHT31;67742;51.972;5.682;2023-08-06T09:30:36;17.9;73.6
78448;SHT31;67742;51.972;5.682;2023-08-06T09:33:08;17.8;74.0
78448;SHT31;67742;51.972;5.682;2023-08-06T09:35:40;17.7;74.0
78448;SHT31;67742;51.972;5.682;2023-08-06T09:38:10;17.7;74.4
78448;SHT31;67742;51.972;5.682;2023-08-06T09:40:39;17.6;74.8
78448;SHT31;67742;51.972;5.682;2023-08-06T09:43:08;17.5;75.0
78448;SHT31;67742;51.972;5.682;2023-08-06T09:45:38;17.5;74.8
78448;SHT31;67742;51.972;5.682;2023-08-06T09:48:09;17.4;75.0
78448;SHT31;67742;51.972;5.682;2023-08-06T09:50:39;17.4;75.3
78448;SHT31;67742;51.972;5.682;2023-08-06T09:53:08;17.3;75.8
78448;SHT31;67742;51.972;5.682;2023-08-06T09:55:37;17.3;76.0
78448;SHT31;67742;51.972;5.682;2023-08-06T09:58:06;17.2;75.9
78448;SHT31;67742;51.972;5.682;2023-08-06T10:00:35;17.2;76.1
78448;SHT31;67742;51.972;5.682;2023-08-06T10:03:08;17.1;76.6
78448;SHT31;67742;51.972;5.682;2023-08-06T10:05:40;17.1;76.8
78448;SHT31;67742;51.972;5.682;2023-08-06T10:08:09;17.0;77.1
78448;SHT31;67742;51.972;5.682;2023-08-06T10:10:40;17.0;77.4
78448;SHT31;67742;51.972;5.682;2023-08-06T10:13:12;17.0;77.7
78448;SHT31;67742;51.972;5.682;2023-08-06T10:15:42;17.0;77.8
78448;SHT31;67742;51.972;5.682;2023-08-06T10:18:12;16.9;77.8
78448;SHT31;67742;51.972;5.682;2023-08-06T10:20:44;16.9;78.0
78448;SHT31;67742;51.972;5.682;2023-08-06T10:23:13;16.9;78.1
78448;SHT31;67742;51.972;5.682;2023-08-06T10:25:54;16.9;78.1
78448;SHT31;67742;51.972;5.682;2023-08-06T10:28:36;16.9;78.4
78448;SHT31;67742;51.972;5.682;2023-08-06T10:31:06;16.9;78.6
78448;SHT31;67742;51.972;5.682;2023-08-06T10:33:45;16.9;78.7
78448;SHT31;67742;51.972;5.682;2023-08-06T10:36:15;16.9;78.6
78448;SHT31;67742;51.972;5.682;2023-08-06T10:38:48;16.9;78.7
78448;SHT31;67742;51.972;5.682;2023-08-06T10:41:22;16.9;78.6
78448;SHT31;67742;51.972;5.682;2023-08-06T10:43:52;16.9;78.5
78448;SHT31;67742;51.972;5.682;2023-08-06T10:46:27;16.9;78.7
78448;SHT31;67742;51.972;5.682;2023-08-06T10:48:57;16.9;79.0
78448;SHT31;67742;51.972;5.682;2023-08-06T10:51:26;16.9;79.1
78448;SHT31;67742;51.972;5.682;2023-08-06T10:53:55;16.9;79.0
78448;SHT31;67742;51.972;5.682;2023-08-06T10:56:25;16.9;78.9
78448;SHT31;67742;51.972;5.682;2023-08-06T10:58:56;16.9;78.8
78448;SHT31;67742;51.972;5.682;2023-08-06T11:01:34;16.9;78.9
78448;SHT31;67742;51.972;5.682;2023-08-06T11:04:05;16.9;78.7
78448;SHT31;67742;51.972;5.682;2023-08-06T11:06:34;16.9;78.7
78448;SHT31;67742;51.972;5.682;2023-08-06T11:09:07;16.9;77.9
78448;SHT31;67742;51.972;5.682;2023-08-06T11:11:36;16.9;78.3
78448;SHT31;67742;51.972;5.682;2023-08-06T11:14:05;16.9;78.5
78448;SHT31;67742;51.972;5.682;2023-08-06T11:16:35;16.9;78.7
78448;SHT31;67742;51.972;5.682;2023-08-06T11:19:03;16.9;78.1
78448;SHT31;67742;51.972;5.682;2023-08-06T11:21:32;16.9;78.0
78448;SHT31;67742;51.972;5.682;2023-08-06T11:24:03;16.9;78.5
78448;SHT31;67742;51.972;5.682;2023-08-06T11:26:32;17.0;78.4
78448;SHT31;67742;51.972;5.682;2023-08-06T11:29:00;17.0;78.7
78448;SHT31;67742;51.972;5.682;2023-08-06T11:31:28;17.0;78.9
78448;SHT31;67742;51.972;5.682;2023-08-06T11:33:57;17.0;78.7
78448;SHT31;67742;51.972;5.682;2023-08-06T11:36:32;17.0;78.7
78448;SHT31;67742;51.972;5.682;2023-08-06T11:39:02;17.0;78.7
78448;SHT31;67742;51.972;5.682;2023-08-06T11:41:32;17.0;78.9
78448;SHT31;67742;51.972;5.682;2023-08-06T11:44:01;17.1;79.0
78448;SHT31;67742;51.972;5.682;2023-08-06T11:47:11;17.1;78.3
78448;SHT31;67742;51.972;5.682;2023-08-06T11:49:42;17.1;77.6
78448;SHT31;67742;51.972;5.682;2023-08-06T11:52:15;17.1;77.5
78448;SHT31;67742;51.972;5.682;2023-08-06T11:54:45;17.1;77.3
78448;SHT31;67742;51.972;5.682;2023-08-06T11:57:15;17.1;77.1
78448;SHT31;67742;51.972;5.682;2023-08-06T11:59:45;17.1;77.2
78448;SHT31;67742;51.972;5.682;2023-08-06T12:02:13;17.1;76.6
78448;SHT31;67742;51.972;5.682;2023-08-06T12:05:04;17.1;76.6
78448;SHT31;67742;51.972;5.682;2023-08-06T12:07:40;17.1;76.4
78448;SHT31;67742;51.972;5.682;2023-08-06T12:10:11;17.1;76.9
78448;SHT31;67742;51.972;5.682;2023-08-06T12:12:40;17.1;77.0
78448;SHT31;67742;51.972;5.682;2023-08-06T12:15:10;17.1;76.8
78448;SHT31;67742;51.972;5.682;2023-08-06T12:17:39;17.1;76.8
78448;SHT31;67742;51.972;5.682;2023-08-06T12:20:09;17.1;77.3
78448;SHT31;67742;51.972;5.682;2023-08-06T12:22:39;17.1;76.3
78448;SHT31;67742;51.972;5.682;2023-08-06T12:25:13;17.1;76.2
78448;SHT31;67742;51.972;5.682;2023-08-06T12:27:43;17.1;75.6
78448;SHT31;67742;51.972;5.682;2023-08-06T12:30:13;17.1;76.0
78448;SHT31;67742;51.972;5.682;2023-08-06T12:32:41;17.2;74.5
78448;SHT31;67742;51.972;5.682;2023-08-06T12:35:10;17.2;73.7
78448;SHT31;67742;51.972;5.682;2023-08-06T12:37:40;17.2;73.6
78448;SHT31;67742;51.972;5.682;2023-08-06T12:40:11;17.1;74.0
78448;SHT31;67742;51.972;5.682;2023-08-06T12:42:39;17.1;74.0
78448;SHT31;67742;51.972;5.682;2023-08-06T12:45:08;17.1;74.7
78448;SHT31;67742;51.972;5.682;2023-08-06T12:47:37;17.1;74.9
78448;SHT31;67742;51.972;5.682;2023-08-06T12:50:07;17.1;75.2
78448;SHT31;67742;51.972;5.682;2023-08-06T12:52:35;17.1;75.5
78448;SHT31;67742;51.972;5.682;2023-08-06T12:55:05;17.1;75.5
78448;SHT31;67742;51.972;5.682;2023-08-06T12:57:33;17.1;76.0
78448;SHT31;67742;51.972;5.682;2023-08-06T13:00:02;17.1;76.2
78448;SHT31;67742;51.972;5.682;2023-08-06T13:02:31;17.1;76.2
78448;SHT31;67742;51.972;5.682;2023-08-06T13:05:01;17.1;76.2
78448;SHT31;67742;51.972;5.682;2023-08-06T13:07:32;17.1;77.1
78448;SHT31;67742;51.972;5.682;2023-08-06T13:10:00;17.1;76.8
78448;SHT31;67742;51.972;5.682;2023-08-06T13:12:30;17.1;77.5
78448;SHT31;67742;51.972;5.682;2023-08-06T13:14:59;17.1;77.9
78448;SHT31;67742;51.972;5.682;2023-08-06T13:17:28;17.1;77.9
78448;SHT31;67742;51.972;5.682;2023-08-06T13:19:56;17.2;77.6
78448;SHT31;67742;51.972;5.682;2023-08-06T13:22:25;17.2;77.5
78448;SHT31;67742;51.972;5.682;2023-08-06T13:24:53;17.2;77.0
78448;SHT31;67742;51.972;5.682;2023-08-06T13:27:21;17.2;77.1
78448;SHT31;67742;51.972;5.682;2023-08-06T13:29:50;17.2;77.7
78448;SHT31;67742;51.972;5.682;2023-08-06T13:32:18;17.3;78.1
78448;SHT31;67742;51.972;5.682;2023-08-06T13:34:47;17.3;78.1
78448;SHT31;67742;51.972;5.682;2023-08-06T13:37:15;17.4;78.1
78448;SHT31;67742;51.972;5.682;2023-08-06T13:39:44;17.4;78.2
78448;SHT31;67742;51.972;5.682;2023-08-06T13:42:15;17.4;78.0
78448;SHT31;67742;51.972;5.682;2023-08-06T13:44:44;17.5;77.4
78448;SHT31;67742;51.972;5.682;2023-08-06T13:47:12;17.5;77.5
78448;SHT31;67742;51.972;5.682;2023-08-06T13:49:41;17.5;77.7
78448;SHT31;67742;51.972;5.682;2023-08-06T13:52:09;17.5;78.0
78448;SHT31;67742;51.972;5.682;2023-08-06T13:54:37;17.6;77.9
78448;SHT31;67742;51.972;5.682;2023-08-06T13:57:06;17.6;77.7
78448;SHT31;67742;51.972;5.682;2023-08-06T13:59:34;17.6;77.8
78448;SHT31;67742;51.972;5.682;2023-08-06T14:02:03;17.6;78.1
78448;SHT31;67742;51.972;5.682;2023-08-06T14:04:31;17.7;77.8
78448;SHT31;67742;51.972;5.682;2023-08-06T14:07:00;17.7;77.6
78448;SHT31;67742;51.972;5.682;2023-08-06T14:09:29;17.7;77.5
78448;SHT31;67742;51.972;5.682;2023-08-06T14:11:58;17.7;77.6
78448;SHT31;67742;51.972;5.682;2023-08-06T14:14:26;17.8;77.3
78448;SHT31;67742;51.972;5.682;2023-08-06T14:16:55;17.8;77.0
78448;SHT31;67742;51.972;5.682;2023-08-06T14:19:24;17.8;77.4
78448;SHT31;67742;51.972;5.682;2023-08-06T14:21:52;17.8;77.3
78448;SHT31;67742;51.972;5.682;2023-08-06T14:24:21;17.8;77.2
78448;SHT31;67742;51.972;5.682;2023-08-06T14:26:50;17.8;77.5
78448;SHT31;67742;51.972;5.682;2023-08-06T14:29:18;17.8;77.3
78448;SHT31;67742;51.972;5.682;2023-08-06T14:31:46;17.9;76.7
78448;SHT31;67742;51.972;5.682;2023-08-06T14:34:15;17.9;77.3
78448;SHT31;67742;51.972;5.682;2023-08-06T14:36:43;17.9;77.3
78448;SHT31;67742;51.972;5.682;2023-08-06T14:39:12;17.9;77.1
78448;SHT31;67742;51.972;5.682;2023-08-06T14:41:40;17.9;77.2
78448;SHT31;67742;51.972;5.682;2023-08-06T14:44:08;17.9;76.6
78448;SHT31;67742;51.972;5.682;2023-08-06T14:46:38;17.9;76.8
78448;SHT31;67742;51.972;5.682;2023-08-06T14:49:06;17.9;77.0
78448;SHT31;67742;51.972;5.682;2023-08-06T14:51:34;17.9;76.8
78448;SHT31;67742;51.972;5.682;2023-08-06T14:54:05;17.9;77.4
78448;SHT31;67742;51.972;5.682;2023-08-06T14:56:33;17.9;77.7
78448;SHT31;67742;51.972;5.682;2023-08-06T14:59:02;17.9;77.7
78448;SHT31;67742;51.972;5.682;2023-08-06T15:01:30;17.9;77.8
78448;SHT31;67742;51.972;5.682;2023-08-06T15:03:59;17.9;77.7
78448;SHT31;67742;51.972;5.682;2023-08-06T15:06:27;17.9;77.6
78448;SHT31;67742;51.972;5.682;2023-08-06T15:08:56;18.0;77.6
78448;SHT31;67742;51.972;5.682;2023-08-06T15:11:27;18.0;77.2
78448;SHT31;67742;51.972;5.682;2023-08-06T15:13:55;18.0;76.9
78448;SHT31;67742;51.972;5.682;2023-08-06T15:16:26;18.0;77.1
78448;SHT31;67742;51.972;5.682;2023-08-06T15:18:55;18.0;77.0
78448;SHT31;67742;51.972;5.682;2023-08-06T15:21:25;18.0;76.7
78448;SHT31;67742;51.972;5.682;2023-08-06T15:23:54;18.0;76.7
78448;SHT31;67742;51.972;5.682;2023-08-06T15:26:22;17.9;76.7
78448;SHT31;67742;51.972;5.682;2023-08-06T15:28:50;17.9;77.2
78448;SHT31;67742;51.972;5.682;2023-08-06T15:31:20;17.9;77.2
78448;SHT31;67742;51.972;5.682;2023-08-06T15:33:49;17.9;77.4
78448;SHT31;67742;51.972;5.682;2023-08-06T15:36:18;17.9;77.2
78448;SHT31;67742;51.972;5.682;2023-08-06T15:38:46;17.9;77.1
78448;SHT31;67742;51.972;5.682;2023-08-06T15:41:15;17.9;77.1
78448;SHT31;67742;51.972;5.682;2023-08-06T15:43:43;17.9;77.0
78448;SHT31;67742;51.972;5.682;2023-08-06T15:46:22;17.9;77.1
78448;SHT31;67742;51.972;5.682;2023-08-06T15:48:50;17.9;76.4
78448;SHT31;67742;51.972;5.682;2023-08-06T15:51:21;17.9;75.0
78448;SHT31;67742;51.972;5.682;2023-08-06T15:53:49;17.9;75.5
78448;SHT31;67742;51.972;5.682;2023-08-06T15:56:18;17.9;75.1
78448;SHT31;67742;51.972;5.682;2023-08-06T15:58:53;17.9;74.9
78448;SHT31;67742;51.972;5.682;2023-08-06T16:01:28;17.8;74.5
78448;SHT31;67742;51.972;5.682;2023-08-06T16:03:57;17.8;74.5
78448;SHT31;67742;51.972;5.682;2023-08-06T16:06:25;17.8;75.4
78448;SHT31;67742;51.972;5.682;2023-08-06T16:08:53;17.7;75.5
78448;SHT31;67742;51.972;5.682;2023-08-06T16:11:22;17.7;75.9
78448;SHT31;67742;51.972;5.682;2023-08-06T16:13:50;17.7;75.2
78448;SHT31;67742;51.972;5.682;2023-08-06T16:16:19;17.7;75.4
78448;SHT31;67742;51.972;5.682;2023-08-06T16:18:48;17.7;75.1